Terminal Aerodrome Forecast
Issued by NWS

Home | Current Version | Previous Version | Text Only | Print | Product List | Glossary On
Versions: 1 2 3 4 5 6 7 8 9 10 11 12 13 14 15 16 17 18 19 20 21 22 23 24 25 26 27 28 29 30 31
000
FTUS41 KOKX 020536
TAFSWF
TAF
KSWF 020536Z 0206/0312 VRB03KT P6SM FEW250
     FM020900 VRB03KT P6SM SCT150
     FM021100 25004KT P6SM BKN120
     FM021400 24012KT P6SM SCT250
     FM021600 23016G25KT P6SM SCT045 SCT250
     FM030000 23014G23KT P6SM SCT040 BKN090
     FM030300 25015G24KT P6SM VCSH SCT030 BKN080
     FM031000 25012KT 4SM -RA OVC015
      AMD NOT SKED=

USA.gov is the U.S. government's official web portal to all federal, state and local government web resources and services.